• Join FlightAware (Why Join?)
  • Login
  • US Flag 
10:45PM EST


 

Airport Tracker/Info


-or-


 

Live Flight TrackerFlight Track Log ✈ RBY803 ✈ 01-Sep-2013 ✈ KGSP - KLAS

Flight Track Log - Related Links

Times and Time Zones

All times are in EDT time to prevent confusion due to time zone crossing. See the RBY803 flight status page for this flight to view local times or setup timezone preferences in your user account.

Time Position Orientation Groundspeed Altitude Reporting Facility
EDT Latitude Longitude Course Direction KTS MPH feet Rate Location/Type
03:59AM 34.9856 -82.2617 253° West 360 414 24,000  Level Atlanta Center
04:00AM 35.0803 -82.3231 332° Northwest 434 499 24,000  Level Atlanta Center
04:01AM 35.1811 -82.3717 338° Northwest 389 448 24,000  Level Atlanta Center
04:02AM 35.2819 -82.4256 336° Northwest 389 448 24,000  Level Atlanta Center
04:03AM 35.3808 -82.4822 335° Northwest 389 448 24,000 -8,400 Level Atlanta Center
04:04AM 34.7729 -82.8463 259° West  Level FlightAware Approximate
04:04AM 35.0333 -82.1133 139° Southeast 366 421 7,200  Level Atlanta Center
04:05AM 34.7449 -82.9707 253° West  Level FlightAware Approximate
04:05AM 35.0739 -82.1761 308° West 225 259 9,900  Level Atlanta Center
04:06AM 35.0817 -82.2697 276° West 190 219 10,700 1,800 Climbing Atlanta Center
04:07AM 35.1000 -82.3936 280° West 291 335 13,500 2,460 Climbing Atlanta Center
04:08AM 35.1142 -82.5153 278° West 325 374 15,700 2,640 Climbing Atlanta Center
04:09AM 35.0928 -82.6453 259° West 355 409 18,800 2,820 Climbing Atlanta Center
04:10AM 35.0861 -82.8000 267° West 396 456 21,400 2,280 Climbing Atlanta Center
04:11AM 35.0811 -82.9500 268° West 410 472 23,400 1,260 Climbing Atlanta Center
04:12AM 35.0761 -83.0922 268° West 431 496 24,000 300 Climbing Atlanta Center
04:13AM 35.0711 -83.2419 268° West 437 503 24,000  Level Atlanta Center
04:14AM 35.0761 -83.3892 272° West 444 511 24,000  Level Atlanta Center
04:15AM 35.0767 -83.5389 270° West 444 511 24,000  Level Atlanta Center
04:16AM 35.0772 -83.6861 270° West 439 505 24,000  Level Atlanta Center
04:17AM 35.0756 -83.8383 269° West 439 505 24,000  Level Atlanta Center
04:18AM 35.0756 -83.9856 270° West 439 505 24,000  Level Atlanta Center
04:19AM 35.0819 -84.1328 273° West 439 505 24,000  Level Atlanta Center
04:20AM 35.0964 -84.2800 277° West 439 505 24,000  Level Atlanta Center
04:21AM 35.1167 -84.4272 280° West 444 511 24,000  Level Atlanta Center
04:22AM 35.1331 -84.5569 279° West 444 511 24,000  Level Atlanta Center
04:23AM 35.1572 -84.7044 281° West 444 511 24,000  Level Atlanta Center
04:24AM 35.1772 -84.8519 279° West 444 511 24,000  Level Atlanta Center
04:25AM 35.1972 -84.9969 280° West 444 511 24,000  Level Atlanta Center
04:26AM 35.2147 -85.1419 278° West 444 511 24,000  Level Atlanta Center
04:27AM 35.2342 -85.2847 280° West 444 511 24,000  Level Atlanta Center
04:28AM 35.2536 -85.4325 279° West 444 511 24,000  Level Atlanta Center
04:29AM 35.2725 -85.5803 279° West 444 511 24,000  Level Atlanta Center
04:30AM 35.2917 -85.7233 279° West 444 511 24,000  Level Atlanta Center
04:31AM 35.3100 -85.8864 278° West 444 511 24,000  Level Atlanta Center
04:32AM 35.3308 -86.0294 280° West 444 511 24,000  Level Atlanta Center
04:33AM 35.3492 -86.1778 279° West 444 511 24,000  Level Atlanta Center
04:34AM 35.3675 -86.3233 279° West 444 511 24,000  Level Atlanta Center
04:35AM 35.3833 -86.4689 278° West 444 511 24,000  Level Atlanta Center
04:36AM 35.4036 -86.5994 281° West 444 511 24,000  Level Atlanta Center
04:37AM 35.4214 -86.7503 278° West 444 511 24,000  Level Atlanta Center
04:38AM 35.4347 -86.8986 276° West 444 511 24,000  Level Atlanta Center
04:39AM 35.4542 -87.0447 279° West 444 511 24,000  Level Atlanta Center
04:41AM 35.4637 -87.1878 275° West  Level FlightAware Approximate
04:48AM 35.5718 -88.1364 278° West  Level FlightAware Approximate
04:49AM 35.5867 -88.2721 278° West  Level FlightAware Approximate
04:50AM 35.6014 -88.4078 278° West  Level FlightAware Approximate
04:51AM 35.6160 -88.5436 278° West  Level FlightAware Approximate
04:52AM 35.6278 -88.6798 276° West  Level FlightAware Approximate
04:53AM 35.6394 -88.8160 276° West  Level FlightAware Approximate
04:54AM 35.6509 -88.9523 276° West  Level FlightAware Approximate
04:55AM 35.6622 -89.0887 276° West  Level FlightAware Approximate
04:56AM 35.6733 -89.2251 276° West  Level FlightAware Approximate
04:57AM 35.6845 -89.3614 277° West  Level FlightAware Approximate
04:58AM 35.6986 -89.4974 277° West  Level FlightAware Approximate
04:59AM 35.7126 -89.6335 277° West  Level FlightAware Approximate
05:00AM 35.7263 -89.7696 277° West  Level FlightAware Approximate
05:01AM 35.7400 -89.9057 277° West  Level FlightAware Approximate
05:02AM 35.7534 -90.0419 277° West  Level FlightAware Approximate
05:03AM 35.7668 -90.1782 277° West  Level FlightAware Approximate
05:04AM 35.7799 -90.3144 277° West  Level FlightAware Approximate
05:05AM 35.7952 -90.4504 278° West  Level FlightAware Approximate
05:06AM 35.8112 -90.5863 278° West  Level FlightAware Approximate
05:07AM 35.8242 -90.7226 276° West  Level FlightAware Approximate
05:07AM 35.8686 -91.1458 276° West 435 501 24,000  Level Kansas City Center
05:08AM 35.8357 -90.8593 276° West  Level FlightAware Approximate
05:08AM 35.8806 -91.2886 276° West 435 501 24,000  Level Kansas City Center
05:09AM 35.8470 -90.9959 276° West  Level FlightAware Approximate
05:09AM 35.8914 -91.4358 275° West 435 501 24,000  Level Kansas City Center
05:10AM 35.8581 -91.1326 276° West  Level FlightAware Approximate
05:10AM 35.9028 -91.5839 275° West 436 502 24,000  Level Kansas City Center
05:11AM 35.8691 -91.2693 276° West  Level FlightAware Approximate
05:11AM 35.9136 -91.7325 275° West 438 504 24,000  Level Kansas City Center
05:12AM 35.8799 -91.4061 276° West  Level FlightAware Approximate
05:12AM 35.9256 -91.8825 276° West 440 506 24,000  Level Kansas City Center
05:13AM 35.9367 -92.0325 275° West 441 507 24,000  Level Kansas City Center
05:14AM 35.9489 -92.1825 276° West 442 509 24,000  Level Kansas City Center
05:15AM 35.9597 -92.3306 275° West 439 505 24,000  Level Kansas City Center
05:16AM 35.9708 -92.4803 275° West 440 506 24,000  Level Kansas City Center
05:17AM 35.9808 -92.6281 275° West 438 504 24,000  Level Kansas City Center
05:18AM 35.9911 -92.7767 275° West 438 504 24,000  Level Kansas City Center
05:19AM 36.0011 -92.9250 275° West 438 504 24,000  Level Kansas City Center
05:20AM 36.0111 -93.0744 275° West 441 507 24,000  Level Kansas City Center
05:21AM 36.0228 -93.2536 275° West 441 507 24,000  Level Kansas City Center
05:22AM 36.0328 -93.4028 275° West 440 506 24,000  Level Kansas City Center
05:23AM 36.0425 -93.5519 275° West 440 506 24,000  Level Kansas City Center
05:24AM 36.0525 -93.7028 275° West 442 509 24,000  Level Kansas City Center
05:25AM 36.0619 -93.8547 274° West 445 512 24,000  Level Kansas City Center
05:26AM 36.0706 -94.0056 274° West 444 511 24,000  Level Kansas City Center
05:27AM 36.0792 -94.1431 274° West 445 512 24,000  Level Kansas City Center
05:28AM 36.0875 -94.2953 274° West 444 511 24,000  Level Kansas City Center
05:29AM 36.0958 -94.4472 274° West 442 509 24,000  Level Kansas City Center
05:30AM 36.1039 -94.5978 274° West 439 505 24,000  Level Kansas City Center
05:31AM 36.1119 -94.7483 274° West 438 504 24,000  Level Kansas City Center
05:32AM 36.1194 -94.8997 274° West 438 504 24,000  Level Kansas City Center
05:33AM 36.1267 -95.0511 273° West 439 505 24,000  Level Kansas City Center
05:34AM 36.1342 -95.2078 273° West 434 499 24,000  Level Kansas City Center
05:35AM 36.1422 -95.3578 274° West 437 503 24,000  Level Kansas City Center
05:36AM 36.1492 -95.5092 273° West 441 507 24,000  Level Kansas City Center
05:37AM 36.1564 -95.6594 273° West 440 506 24,000  Level Kansas City Center
05:38AM 36.1631 -95.8133 273° West 441 507 24,000  Level Kansas City Center
05:39AM 36.1697 -95.9642 273° West 438 504 24,000  Level Kansas City Center
05:40AM 36.1761 -96.1153 273° West 437 503 24,000  Level Kansas City Center
05:41AM 36.1825 -96.2661 273° West 437 503 24,000  Level Kansas City Center
05:42AM 36.1883 -96.4158 273° West 436 502 24,000  Level Kansas City Center
05:43AM 36.1939 -96.5672 273° West 439 505 24,000  Level Kansas City Center
05:44AM 36.1992 -96.7183 273° West 438 504 24,000  Level Kansas City Center
05:45AM 36.2047 -96.8581 273° West 437 503 24,000  Level Kansas City Center
05:46AM 36.2106 -97.0094 273° West 440 506 24,000  Level Kansas City Center
05:47AM 36.2156 -97.1608 272° West 443 510 24,000  Level Kansas City Center
05:48AM 36.2200 -97.3117 272° West 442 509 24,000  Level Kansas City Center
05:49AM 36.2247 -97.4636 272° West 443 510 24,000  Level Kansas City Center
05:50AM 36.2292 -97.6142 272° West 442 509 24,000  Level Kansas City Center
05:51AM 36.2325 -97.7658 272° West 443 510 24,000  Level Kansas City Center
05:52AM 36.2375 -97.9161 272° West 440 506 24,000  Level Kansas City Center
05:53AM 36.2411 -98.0653 272° West 438 504 24,000  Level Kansas City Center
05:54AM 36.2436 -98.2122 271° West 436 502 24,000  Level Kansas City Center
05:55AM 36.2475 -98.3625 272° West 435 501 24,000  Level Kansas City Center
05:56AM 36.2497 -98.5119 271° West 435 501 24,000  Level Kansas City Center
05:57AM 36.2528 -98.6603 272° West 434 499 24,000  Level Kansas City Center
05:58AM 36.2558 -98.8081 272° West 431 496 24,000  Level Kansas City Center
05:59AM 36.2592 -98.9833 271° West 430 495 24,000  Level Kansas City Center
06:00AM 36.2614 -99.1306 271° West 431 496 24,000  Level Kansas City Center
06:01AM 36.2636 -99.2764 271° West 430 495 24,000  Level Kansas City Center
06:02AM 36.2664 -99.4236 271° West 431 496 24,000  Level Kansas City Center
06:03AM 36.2675 -99.5703 271° West 429 494 24,000  Level Kansas City Center
06:04AM 36.2700 -99.7183 271° West 431 496 24,000  Level Kansas City Center
06:05AM 36.2711 -99.8656 271° West 429 494 24,000  Level Kansas City Center
06:06AM 36.2731 -100.0128 271° West 428 493 24,000  Level Kansas City Center
06:07AM 36.2742 -100.1581 271° West 425 489 24,000  Level Kansas City Center
06:08AM 36.2742 -100.3042 270° West 425 489 24,000  Level Kansas City Center
06:09AM 36.2756 -100.4492 271° West 421 484 24,000  Level Kansas City Center
06:10AM 36.2753 -100.5997 270° West 431 496 24,000  Level Kansas City Center
06:11AM 36.2772 -100.7569 271° West 442 509 24,000  Level Kansas City Center
06:12AM 36.2772 -100.9111 270° West 447 514 24,000  Level Kansas City Center
06:13AM 36.2767 -100.9692 269° West 444 511 24,000  Level Albuquerque Center
06:14AM 36.2778 -101.1203 271° West 444 511 24,000  Level Albuquerque Center
06:15AM 36.2761 -101.2742 269° West 445 512 24,000  Level Albuquerque Center
06:16AM 36.2775 -101.4308 271° West 452 520 24,000  Level Albuquerque Center
06:17AM 36.2764 -101.5858 270° West 453 521 24,000  Level Albuquerque Center
06:18AM 36.2758 -101.7378 270° West 449 517 24,000  Level Albuquerque Center
06:19AM 36.2747 -101.8897 270° West 446 513 24,000  Level Albuquerque Center
06:20AM 36.2731 -102.0425 269° West 446 513 24,000  Level Albuquerque Center
06:21AM 36.2722 -102.1953 270° West 446 513 24,000  Level Albuquerque Center
06:22AM 36.2703 -102.3478 269° West 446 513 24,000  Level Albuquerque Center
06:23AM 36.2675 -102.5036 269° West 452 520 24,000  Level Albuquerque Center
06:24AM 36.2658 -102.6900 269° West 453 521 24,000  Level Albuquerque Center
06:25AM 36.2633 -102.8447 269° West 452 520 24,000  Level Albuquerque Center
06:26AM 36.2625 -102.9900 270° West 452 520 24,000  Level Albuquerque Center
06:27AM 36.2586 -103.1464 268° West 453 521 24,000  Level Albuquerque Center
06:28AM 36.2569 -103.3050 269° West 455 524 24,000  Level Albuquerque Center
06:29AM 36.2533 -103.4614 268° West 454 522 24,000  Level Albuquerque Center
06:30AM 36.2503 -103.6183 269° West 454 522 24,000  Level Albuquerque Center
06:31AM 36.2467 -103.7739 268° West 451 519 24,000  Level Albuquerque Center
06:32AM 36.2436 -103.9322 269° West 455 524 24,000  Level Albuquerque Center
06:33AM 36.2392 -104.0894 268° West 455 524 24,000  Level Albuquerque Center
06:34AM 36.2344 -104.2419 268° West 447 514 24,000  Level Albuquerque Center
06:35AM 36.2300 -104.3869 268° West 426 490 24,000  Level Albuquerque Center
06:36AM 36.2264 -104.5311 268° West 420 483 24,000  Level Albuquerque Center
06:37AM 36.2236 -104.6522 268° West 419 482 24,000  Level Albuquerque Center
06:38AM 36.2181 -104.7978 267° West 421 484 24,000  Level Albuquerque Center
06:39AM 36.2136 -104.9444 268° West 423 487 24,000  Level Albuquerque Center
06:40AM 36.2083 -105.0919 268° West 426 490 24,000  Level Albuquerque Center
06:41AM 36.2036 -105.2403 268° West 428 493 24,000  Level Albuquerque Center
06:42AM 36.1978 -105.3892 267° West 430 495 24,000  Level Albuquerque Center
06:43AM 36.1922 -105.5269 267° West 427 491 24,000  Level Albuquerque Center
06:44AM 36.1875 -105.6767 268° West 428 493 24,000  Level Albuquerque Center
06:45AM 36.1819 -105.8236 267° West 429 494 24,000  Level Albuquerque Center
06:46AM 36.1761 -105.9686 267° West 428 493 24,000  Level Albuquerque Center
06:47AM 36.1706 -106.1117 267° West 424 488 24,000  Level Albuquerque Center
06:48AM 36.1642 -106.2567 267° West 423 487 24,000  Level Albuquerque Center
06:49AM 36.1581 -106.4008 267° West 423 487 24,000  Level Albuquerque Center
06:50AM 36.1508 -106.5642 267° West 419 482 24,000  Level Albuquerque Center
06:51AM 36.1433 -106.7044 266° West 425 489 24,000  Level Albuquerque Center
06:52AM 36.1369 -106.8436 267° West 425 489 24,000  Level Albuquerque Center
06:53AM 36.1289 -107.0081 267° West 428 493 24,000  Level Albuquerque Center
06:54AM 36.1236 -107.1494 267° West 429 494 24,000  Level Albuquerque Center
06:55AM 36.1153 -107.2908 266° West 430 495 24,000  Level Albuquerque Center
06:56AM 36.1081 -107.4322 266° West 430 495 24,000  Level Albuquerque Center
06:57AM 36.0994 -107.5961 266° West 428 493 24,000  Level Albuquerque Center
06:58AM 36.0906 -107.7344 265° West 425 489 24,000  Level Albuquerque Center
06:59AM 36.0833 -107.8731 266° West 423 487 24,000  Level Albuquerque Center
07:00AM 36.0756 -108.0119 266° West 423 487 24,000  Level Albuquerque Center
07:01AM 36.0661 -108.1742 266° West 424 488 24,000  Level Albuquerque Center
07:02AM 36.0569 -108.3114 265° West 420 483 24,000  Level Albuquerque Center
07:03AM 36.0492 -108.4514 266° West 424 488 24,000  Level Albuquerque Center
07:04AM 36.0394 -108.6081 266° West 424 488 24,000  Level Albuquerque Center
07:05AM 36.0294 -108.7531 265° West 425 489 24,000  Level Albuquerque Center
07:06AM 36.0203 -108.8983 266° West 426 490 24,000  Level Albuquerque Center
07:07AM 36.0089 -109.0442 265° West 428 493 24,000  Level Albuquerque Center
07:08AM 36.0017 -109.1797 266° West 426 490 24,000  Level Albuquerque Center
07:09AM 35.9925 -109.3172 265° West 420 483 24,000  Level Albuquerque Center
07:10AM 35.9844 -109.4092 264° West 420 483 24,000  Level Denver Center
07:11AM 35.9742 -109.5697 266° West 420 483 24,000  Level Denver Center
07:12AM 35.9642 -109.7086 265° West 422 486 24,000  Level Denver Center
07:13AM 35.9544 -109.8475 265° West 424 488 24,000  Level Denver Center
07:14AM 35.9433 -109.9853 264° West 422 486 24,000  Level Denver Center
07:15AM 35.9319 -110.1289 264° West 423 487 24,000  Level Denver Center
07:16AM 35.9211 -110.2731 265° West 422 486 24,000  Level Denver Center
07:17AM 35.9114 -110.4172 265° West 423 487 24,000  Level Denver Center
07:18AM 35.8989 -110.5642 264° West 428 493 24,000  Level Denver Center
07:19AM 35.8872 -110.7092 264° West 427 491 24,000  Level Denver Center
07:20AM 35.8750 -110.8544 264° West 427 491 24,000  Level Denver Center
07:21AM 35.8639 -110.9978 265° West 423 487 24,000  Level Denver Center
07:22AM 35.8522 -111.1406 264° West 420 483 24,000  Level Denver Center
07:23AM 35.8392 -111.2822 264° West 417 480 24,000  Level Denver Center
07:24AM 35.8275 -111.4264 264° West 421 484 24,000  Level Denver Center
07:25AM 35.8142 -111.5697 263° West 422 486 24,000  Level Denver Center
07:26AM 35.8008 -111.7136 264° West 422 486 24,000  Level Denver Center
07:27AM 35.8061 -111.8592 273° West 424 488 24,000  Level Denver Center
07:28AM 35.8206 -112.0028 277° West 423 487 24,000  Level Denver Center
07:29AM 35.8347 -112.1458 277° West 421 484 24,000  Level Denver Center
07:30AM 35.8503 -112.2886 278° West 421 484 24,000  Level Denver Center
07:31AM 35.8644 -112.4325 277° West 421 484 24,000  Level Denver Center
07:32AM 35.8819 -112.6072 277° West 423 487 24,000  Level Los Angeles Center
07:33AM 35.8956 -112.7494 277° West 424 488 24,000 -180 Level Los Angeles Center
07:34AM 35.9094 -112.8919 277° West 424 488 23,700 -480 Descending Los Angeles Center
07:35AM 35.9233 -113.0347 277° West 424 488 23,100 -600 Descending Los Angeles Center
07:36AM 35.9372 -113.1756 277° West 421 484 22,600 -540 Descending Los Angeles Center
07:37AM 35.9503 -113.3181 276° West 421 484 22,100 -600 Descending Los Angeles Center
07:38AM 35.9628 -113.4589 276° West 421 484 21,500 -600 Descending Los Angeles Center
07:39AM 35.9767 -113.6233 276° West 406 467 20,900 -1,860 Descending Los Angeles Center
07:40AM 35.9903 -113.7631 277° West 406 467 17,800 -3,120 Descending Los Angeles Center
07:41AM 36.0017 -113.8994 276° West 403 464 14,700 -3,060 Descending Los Angeles Center
07:42AM 36.0136 -114.0297 277° West 385 443 11,700 -2,280 Descending Los Angeles Center
07:43AM 36.0197 -114.1058 276° West 375 432 10,800 -900 Descending Los Angeles Center
07:44AM 36.0342 -114.2556 277° West 358 412 10,000 -420 Descending Los Angeles Center
07:45AM 36.0467 -114.3792 277° West 331 381 9,900 -660 Descending Los Angeles Center
07:46AM 36.0578 -114.4767 278° West 291 335 8,700 -960 Descending Los Angeles Center
07:47AM 36.0686 -114.5742 278° West 284 327 8,000 -360 Descending Los Angeles Center
07:48AM 36.0744 -114.6683 274° West 279 321 8,000 -60 Level Los Angeles Center
07:49AM 36.0719 -114.7650 268° West 256 295 7,900 -960 Descending Los Angeles Center
07:50AM 36.0728 -114.8472 271° West 258 297 6,100 -1,380 Descending Los Angeles Center
07:51AM 36.0736 -114.9294 271° West 225 259 5,100 -1,080 Descending Los Angeles Center
07:52AM 36.0747 -115.0036 271° West 201 231 4,000 -1,080 Descending Los Angeles Center
07:53AM 36.0736 -115.0678 269° West 185 213 3,000 -900 Descending Los Angeles Center
07:54AM 36.0733 -115.1158 270° West 140 161 2,300 -720 Descending Los Angeles Center
07:56AM 36.0667 -115.1500 270° West  Level FlightAware Approximate